Friday, November 24, 2017, 12:21 AM GMT
Back to Local

CYYG, Charlottetown, P. E. I.

Location: , , Canada Lat: 46.283
Local Time: 12:21 AM GMT ( 0:21 GMT) Lon: -63.133
Time Zone: GMT Elev: 157 ft

Show me the last for .
Show Coded

Time T Td Feel RH Dir Speed Gust Alt SLP Vis Weather Sky Remarks
2017-11-24 00:00 28 21 15 74 280° 10 20 29.79 29.80 15 BKN023 None
2017-11-23 23:00 30 21 17 68 270° 13 21 29.79 29.80 15 BKN023 BKN250 None
2017-11-23 22:00 30 21 21 68 260° 12 - 29.78 29.79 15 FEW022 SCT240 Pressure rising rapidly
2017-11-23 21:00 30 23 18 74 270° 10 20 29.76 29.76 15 FEW020 SCT240 None
2017-11-23 20:00 32 23 19 68 280° 14 22 29.73 29.74 15 FEW022 BKN260 None
2017-11-23 19:00 34 25 21 69 280° 20 28 29.70 29.71 15 FEW024 SCT250 None
2017-11-23 18:00 34 25 20 69 290° 18 29 29.69 29.70 15 SCT024 None
2017-11-23 17:00 36 27 24 69 270° 14 23 29.67 29.68 15 SCT022 Pressure rising rapidly
2017-11-23 16:00 36 28 21 74 290° 21 38 29.61 29.62 15 FEW018 None
2017-11-23 15:00 34 32 19 93 290° 21 36 29.60 29.61 15 BKN018 BKN050 None
2017-11-23 14:32 34 32 19 93 280° 16 35 29.57 29.58 15 BKN015 BKN050 None
2017-11-23 14:00 34 32 19 93 290° 18 33 29.54 29.55 15 -SN BKN015 BKN052 Pressure rising rapidly
2017-11-23 13:32 34 32 19 93 290° 23 36 29.51 29.52 15 -SN FEW008 BKN015 BKN050 Pressure rising rapidly
2017-11-23 13:00 34 32 18 93 290° 23 44 29.47 29.48 12 -SN FEW004 BKN014 OVC022 Pressure rising rapidly
2017-11-23 12:46 34 32 18 93 290° 24 41 29.45 29.46 8 -SN FEW007 BKN014 OVC022 Pressure rising rapidly
2017-11-23 12:35 34 32 18 93 290° 26 41 29.44 29.44 5 -SN BR FEW006 BKN010 OVC018 Pressure rising rapidly
2017-11-23 12:15 34 32 18 93 290° 23 40 29.41 29.41 3 -SN BR SCT004 BKN009 OVC017 Pressure rising rapidly
2017-11-23 12:00 34 32 18 93 290° 29 45 29.38 29.39 1 -SN BR SCT004 OVC008 Pressure rising rapidly
2017-11-23 11:58 34 32 18 93 290° 23 45 29.38 29.38 1 -SN BR BKN004 OVC009 Pressure rising rapidly
2017-11-23 11:06 34 32 18 93 290° 30 45 29.26 29.26 0 -SN BR BKN003 Pressure rising rapidly
2017-11-23 11:00 34 32 18 93 300° 28 45 29.24 29.25 1 -SN BR OVC006 Pressure rising rapidly
2017-11-23 10:53 34 32 17 93 300° 26 48 29.22 29.23 2 -SN BR OVC007 Pressure rising rapidly
2017-11-23 10:34 36 36 19 100 300° 29 58 29.18 29.19 3 -RASN BR OVC007 Pressure rising rapidly
2017-11-23 10:33 37 36 21 93 300° 31 58 29.18 29.18 3 -RASN BR OVC008 Pressure rising rapidly
2017-11-23 10:00 39 37 23 93 300° 32 63 29.11 29.12 2 RA BR BKN007 OVC016 Pressure rising rapidly
2017-11-23 09:49 39 37 24 93 300° 41 55 29.09 29.10 2 RA BR OVC006 Pressure rising rapidly
2017-11-23 09:11 43 41 31 93 310° 30 41 29.01 29.01 3 -RA BR BKN004 OVC012 None
2017-11-23 09:00 45 45 34 100 290° 22 32 29.02 29.02 1 RA BR BKN004 OVC009 None
2017-11-23 08:52 50 48 42 93 310° 20 28 29.01 29.02 1 -RA BR OVC004 Wind Shift: 39 min
2017-11-23 08:41 52 50 - 93 360° 9 17 29.02 29.03 1 -RA BR OVC004 Pressure falling rapidly
2017-11-23 08:30 52 50 - 93 20° 14 - 29.04 29.04 1 RA BR SCT004 BKN009 OVC025 Pressure falling rapidly
2017-11-23 08:00 52 52 - 100 70° 12 - 29.11 29.11 2 RA BR BKN003 OVC020 Pressure falling rapidly
2017-11-23 07:44 54 52 - 93 80° 10 - 29.14 29.15 2 RA BR OVC003 Pressure falling rapidly
2017-11-23 07:34 54 52 - 93 100° 10 - 29.17 29.18 4 -RA BR OVC004 Pressure falling rapidly
2017-11-23 07:14 54 52 - 93 130° 10 21 29.22 29.23 4 -RA BR BKN005 OVC015 Pressure falling rapidly
2017-11-23 07:00 54 52 - 93 130° 17 29 29.24 29.25 5 RA BR BKN005 BKN015 OVC070 Pressure falling rapidly
2017-11-23 06:41 54 52 - 93 120° 16 24 29.27 29.28 5 RA BR BKN005 OVC014 Pressure falling rapidly
2017-11-23 06:00 54 52 - 93 130° 15 - 29.33 29.34 5 RA BR BKN008 OVC016 Pressure falling rapidly
2017-11-23 05:40 54 52 - 93 120° 12 18 29.37 29.38 5 RA BR BKN006 OVC018 Pressure falling rapidly
2017-11-23 05:00 54 52 - 93 130° 15 23 29.46 29.46 6 RA BR SCT008 OVC020 Pressure falling rapidly
2017-11-23 04:48 54 52 - 93 140° 16 24 29.48 29.48 6 RA BR SCT009 OVC025 Pressure falling rapidly
2017-11-23 04:00 54 52 - 93 150° 15 24 29.54 29.55 6 -RA BR SCT008 OVC018 Pressure falling rapidly
2017-11-23 03:26 54 52 - 93 150° 17 24 29.58 29.59 6 -RA BR SCT007 OVC019 None
2017-11-23 03:12 54 52 - 93 160° 16 26 29.59 29.60 6 RA BR BKN006 OVC022 Pressure falling rapidly
2017-11-23 03:00 54 52 - 93 150° 16 23 29.61 29.62 6 -RA SCT007 OVC025 Pressure falling rapidly
2017-11-23 02:15 54 50 - 87 160° 21 28 29.66 29.67 6 RA BR SCT008 OVC030 Pressure falling rapidly
2017-11-23 02:10 54 50 - 87 150° 21 30 29.66 29.67 8 -RA SCT009 BKN017 OVC065 Pressure falling rapidly
2017-11-23 02:00 54 50 - 87 150° 23 35 29.67 29.68 10 -RA BKN017 OVC040 None
2017-11-23 01:48 54 50 - 87 150° 20 - 29.68 29.69 12 -RA BKN019 OVC060 None
2017-11-23 01:00 54 50 - 87 150° 16 23 29.72 29.72 15 VCSH SCT040 OVC110 Pressure falling rapidly

Support USWX by starting your Amazon purchase here.